Nektarios Artymatas

Scout - Omonoia
3 Dez 2028
Sonntag
Verarbeitung

Persönlichkeit

Anpassungsfähigkeit (18) Ehrgeiz (3) Kontroverse (1) Loyalität (9) Druck (2) Professionalität (13) Fairness (6) Temperament (15)

Profil

Trainerstil Demokratisch
Lizenz Kontinentale A
Entschlossenheit 12
Menschenführung 11
Motivation 10
Disziplin 8
Arbeitszufriedenheit
100%
Ermüdung
0%
Rolle Scout
Gehalt 52.4K p/W
Vertrag 14.03.2029

Leistung

Verhalten Gut
Trainingseffektivität
40%
Spielerentwicklung
60%
Verletzungsprävention
45%
Taktische Umsetzung
40%

Letzte Ereignisse

Nahm an einer Scouting-Besprechung teil jetzt
Spieler begutachtet jetzt
Spieler begutachtet jetzt
Spieler begutachtet jetzt
Spieler begutachtet 7T her
Spiel beobachtet 7T her
Spiel beobachtet 7T her
Spieler begutachtet 7T her

Aktuell beobachtet

387
Spieler Verein Status Fähigkeit Vertrauen Beobachtet Zuletzt beobachtet Letzte Stimme
Thiago Parga Huracán Aktiv 96 / 111 40% 5 30.11.2028 -
José Alburquenque Universidad de Chile Aktiv 93 / 98 40% 1 30.11.2028 -
Matt Bagot Fulham Aktiv 81 / 93 40% 1 30.11.2028 -
Robert Cook Accrington Stanley Aktiv 123 / 126 40% 17 29.11.2028 -
Matías Villa Envigado Aktiv 85 / 96 40% 3 29.11.2028 -
Tobías Mendoza Estudiantes Aktiv 89 / 98 40% 2 29.11.2028 -
Domnan Panse Plateau United Aktiv 104 / 100 40% 5 28.11.2028 -
Liam Doyle Brighton Aktiv 82 / 91 40% 1 28.11.2028 -
Nicolás Osorio Once Caldas Aktiv 86 / 90 40% 1 28.11.2028 -
Nicholas Michalski Northampton Town Aktiv 126 / 121 40% 7 25.11.2028 -
Francisco Valdés Universidad Catolica Aktiv 99 / 99 40% 2 25.11.2028 -
Lanre Awesu West Ham United Aktiv 101 / 95 40% 1 25.11.2028 -
Owen Asemota Aston Villa Aktiv 92 / 111 40% 2 21.11.2028 -
Aljaž Strajnar Giugliano Aktiv 106 / 117 40% 2 21.11.2028 -
Amil Siljevic Heracles Aktiv 103 / 115 40% 1 21.11.2028 -
Lionel Madriaga Belgrano Aktiv 95 / 98 40% 4 19.11.2028 -
Damian Čech Fulham Aktiv 98 / 100 40% 3 19.11.2028 -
Alessandro Nunziante Mantova Aktiv 128 / 131 40% 7 19.11.2028 -
Sam Proctor Salford City Aktiv 116 / 138 40% 24 18.11.2028 -
Raúl Duran Real Madrid Aktiv 111 / 104 40% 3 16.11.2028 -
Alexander Zenti Giana Erminio Aktiv 106 / 117 40% 2 16.11.2028 -
Matías Vilalta Giana Erminio Aktiv 110 / 103 40% 4 14.11.2028 -
Tomás Silva Lanús Aktiv 95 / 109 40% 1 14.11.2028 -
Juan Álvarez Argentinos Juniors Aktiv 98 / 101 40% 2 13.11.2028 -
David Medina Atlético Madrid Aktiv 102 / 108 40% 2 13.11.2028 -
Alejandro Martínez Tigres Aktiv 91 / 90 40% 2 13.11.2028 -
Alfonso Álvarez Ferro Carril Oeste Aktiv 104 / 101 40% 5 12.11.2028 -
Luis Lines Norwich City Aktiv 94 / 102 40% 2 12.11.2028 -
Vito Rosané IFK Goteborg Aktiv 94 / 95 40% 4 12.11.2028 -
Dylan Moody Cheltenham Town Aktiv 121 / 132 40% 11 11.11.2028 -
Patricio Flores Defensa y Justicia Aktiv 101 / 103 40% 2 10.11.2028 -
Franco Jaroszewicz River Plate Aktiv 111 / 127 40% 1 10.11.2028 -
Henier Rodríguez Carabobo Aktiv 86 / 94 40% 1 10.11.2028 -
Dylan Martínez River Plate Aktiv 108 / 106 40% 5 07.11.2028 -
Callan McKenna Derby County Aktiv 113 / 120 40% 3 07.11.2028 -
Fred Heath Manchester United Aktiv 100 / 96 40% 2 07.11.2028 -
Ezequiel Zapata Rosario Central Aktiv 94 / 101 40% 3 04.11.2028 -
Raffaele Huli Juventus Aktiv 102 / 115 40% 1 04.11.2028 -
Bryan Francillonne Paris Saint-Germain Aktiv 111 / 111 40% 1 03.11.2028 -
Benicio Romero Inter Aktiv 89 / 107 40% 1 03.11.2028 -
Kai Crampton Rapid Wien Aktiv 108 / 110 40% 2 02.11.2028 -
Vladan Čarapić Partizan Aktiv 96 / 111 40% 1 02.11.2028 -
Hudson Sands Chelsea Aktiv 105 / 114 40% 4 01.11.2028 -
Vladislav Drozd Isloch Aktiv 66 / 84 40% 2 01.11.2028 -
Nicolás Monges Sarmiento Aktiv 90 / 105 40% 2 31.10.2028 -
Ezequiel Cardozo Arsenal Aktiv 81 / 87 40% 1 30.10.2028 -
Ramiro Buratti River Plate Aktiv 93 / 114 40% 4 26.10.2028 -
Agustín Ayala Gimnasia La Plata Aktiv 88 / 102 40% 1 26.10.2028 -
Joe Bailey Nottingham Forest Aktiv 86 / 89 40% 1 26.10.2028 -
Máximo Casalnuovo Morón Aktiv 88 / 100 40% 3 23.10.2028 -
Leonardo Sosa Rosario Central Aktiv 99 / 107 40% 9 21.10.2028 -
Yurdy Ramos Real Santander Aktiv 82 / 95 40% 5 21.10.2028 -
Joseph Cowan Sunderland Aktiv 100 / 108 40% 3 19.10.2028 -
Noé Poillion Stade Brestois Aktiv 96 / 107 40% 1 19.10.2028 -
Saúl Durán Gornik Zabrze Aktiv 91 / 99 40% 1 19.10.2028 -
Finley Grigg Manchester City Aktiv 107 / 119 40% 2 18.10.2028 -
Arseny Osadchiy Krylya Sovetov Aktiv 88 / 81 40% 1 18.10.2028 -
Miguel Gouveia Girona Aktiv 118 / 122 40% 1 18.10.2028 -
Andrey Tsitsilin Baltika Aktiv 86 / 93 40% 2 17.10.2028 -
Matteo Farronato Inter Aktiv 96 / 112 40% 1 16.10.2028 -
Lautaro Vera Platense Aktiv 103 / 110 40% 3 11.10.2028 -
Francesco Cereser Ospitaletto Aktiv 112 / 108 40% 1 11.10.2028 -
Iván Díaz Millonarios Aktiv 92 / 92 40% 2 06.10.2028 -
Agustín Reynoso Boca Juniors Aktiv 99 / 104 40% 1 06.10.2028 -
Farren Doran Tottenham Aktiv 94 / 112 40% 5 03.10.2028 -
Álvaro Busso Vélez Aktiv 108 / 121 40% 11 01.10.2028 -
Iason Georgakopoulos Giresunspor Aktiv 105 / 108 40% 1 01.10.2028 -
Renato Ardissono San Lorenzo Aktiv 99 / 103 40% 3 29.09.2028 -
Kabangu Alex Teixeira Le Havre AC Aktiv 114 / 124 40% 3 29.09.2028 -
José Quevedo Tigres Aktiv 92 / 91 40% 3 28.09.2028 -
Diego Di Salvatore AS Roma Aktiv 95 / 108 40% 1 28.09.2028 -
Nahuel Scarpino Ferro Carril Oeste Aktiv 80 / 93 40% 1 28.09.2028 -
Salaheddine Benyachou Doxa Aktiv 113 / 113 42% 1 / 1m 27.09.2028 -
Yerson Chacón AE Kition Aktiv 133 / 133 42% 1 / 1m 27.09.2028 -
Blake Irow Tottenham Aktiv 101 / 112 40% 5 25.09.2028 -
Enzo Romero Defensa y Justicia Aktiv 97 / 94 40% 2 21.09.2028 -
Almustapha Kabiru Plateau United Aktiv 96 / 86 40% 2 20.09.2028 -
Gabriel Maureira Colo-Colo Aktiv 100 / 102 40% 1 19.09.2028 -
Valentín Perroud Boca Juniors Aktiv 90 / 99 40% 1 18.09.2028 -
Walter Molina Defensa y Justicia Aktiv 85 / 97 40% 4 17.09.2028 -
Joel Abregu Temperley Aktiv 97 / 99 40% 2 15.09.2028 -
Oisin Cooney Burnley Aktiv 92 / 93 40% 1 15.09.2028 -
Zac Smith Nottingham Forest Aktiv 95 / 96 40% 1 14.09.2028 -
David Mojica Union Magdalena Aktiv 92 / 93 40% 1 11.09.2028 -
Jack Allan Aston Villa Aktiv 101 / 98 40% 2 10.09.2028 -
Alastair Graham Nottingham Forest Aktiv 108 / 112 40% 3 08.09.2028 -
Owen Grainger Nottingham Forest Aktiv 80 / 88 40% 1 08.09.2028 -
Thiago Nahuel Independiente Aktiv 93 / 101 40% 5 07.09.2028 -
Ryan Pepi DC United Aktiv 72 / 93 40% 1 07.09.2028 -
Fabián Cristaldo Defensor Sporting Aktiv 101 / 103 40% 1 06.09.2028 -
Lucas Escalante San Diego Football Club Aktiv 95 / 83 40% 1 06.09.2028 -
Antonio Iglesias Sevilla Aktiv 102 / 103 40% 1 06.09.2028 -
Luca Campagnaro Colón Aktiv 89 / 99 40% 4 04.09.2028 -
Dante Blanco Lanús Aktiv 98 / 106 40% 1 04.09.2028 -
Stavros Psyropoulos Kasimpasa Aktiv 80 / 91 40% 1 04.09.2028 -
Andreas Stafylidis Asteras Aktiv 94 / 109 40% 2 03.09.2028 -
Mauro Matorras Central Norte Aktiv 95 / 101 40% 2 03.09.2028 -
Valentín Gradín Al-Ettifaq Aktiv 100 / 97 40% 1 03.09.2028 -
Tiago Gordillo San Miguel Aktiv 90 / 97 40% 11 02.09.2028 -
Máximo Munarriz San Telmo Aktiv 103 / 111 40% 5 02.09.2028 -
Tiago Cobo Morón Aktiv 79 / 87 40% 2 02.09.2028 -
Benito Paklayan Alvarado Aktiv 89 / 92 40% 2 01.09.2028 -
Santiago Moreira Quilmes Aktiv 80 / 88 40% 1 01.09.2028 -
Lucas Silva River Plate Aktiv 111 / 112 40% 1 01.09.2028 -
Agustín Medina Lanús Aktiv 113 / 126 40% 3 31.08.2028 -
Joaquín Salas Reading Aktiv 86 / 114 40% 1 31.08.2028 -
Jack Austin Chelsea Aktiv 108 / 113 40% 3 29.08.2028 -
Ivan Borges Defensores Aktiv 79 / 87 40% 2 29.08.2028 -
Felipe Obradovich Ferro Carril Oeste Aktiv 102 / 116 40% 1 29.08.2028 -
Yolvis Humanes Union Magdalena Aktiv 86 / 93 40% 2 28.08.2028 -
Quincy De Roon PSV Aktiv 88 / 97 40% 1 26.08.2028 -
Pavlos Tsiotas Zurich Aktiv 77 / 91 40% 1 26.08.2028 -
Andrey Ivlev Nizhniy Novgorod Aktiv 123 / 114 40% 6 25.08.2028 -
Román Colo All Boys Aktiv 84 / 101 40% 2 25.08.2028 -
Jan Cedilnik Chikhura Aktiv 80 / 95 40% 5 25.08.2028 -
Dylan Thompson Tottenham Aktiv 101 / 94 40% 2 25.08.2028 -
Sebastiano Nava Juventus Aktiv 104 / 116 40% 1 25.08.2028 -
Riquelme Thompson-Jones Accrington Stanley Aktiv 111 / 113 40% 9 24.08.2028 -
Tobías Ramírez River Plate Aktiv 137 / 134 40% 9 24.08.2028 -
Anderson Acevedo Bogota Aktiv 93 / 95 40% 1 24.08.2028 -
Vasilis Karkatsalis Rayo Vallecano Aktiv 90 / 102 40% 6 22.08.2028 -
Mateo Faure BATE Aktiv 84 / 101 40% 6 21.08.2028 -
Calvin Diakite Chesterfield Aktiv 93 / 97 40% 1 21.08.2028 -
Marcos López Banfield Aktiv 103 / 99 40% 1 21.08.2028 -
Amar Milisic Vitoria Guimaraes Aktiv 83 / 103 40% 1 20.08.2028 -
Estanislao López Colón Aktiv 92 / 101 40% 3 19.08.2028 -
Matías Satas Grimsby Town Aktiv 96 / 119 40% 1 19.08.2028 -
Federico Matarán Giana Erminio Aktiv 95 / 121 40% 4 18.08.2028 -
Alfie Cresswell Leeds United Aktiv 109 / 112 40% 1 18.08.2028 -
Duje Slatina Trapani Aktiv 89 / 93 40% 2 17.08.2028 -
Thiago Salinas Argentinos Juniors Aktiv 94 / 102 40% 1 17.08.2028 -
Claudio Lopez MSK Zilina Aktiv 89 / 96 40% 1 17.08.2028 -
Joaquín Ravasio Talleres Aktiv 83 / 93 40% 1 17.08.2028 -
Fabio Rispoli Como Aktiv 113 / 130 40% 3 15.08.2028 -
Samuel Córdoba Depor Aktiv 92 / 95 40% 2 15.08.2028 -
Mateo Ferrari Atlanta Aktiv 92 / 97 40% 1 14.08.2028 -
Óscar Surmay Union Magdalena Aktiv 78 / 89 40% 1 14.08.2028 -
Simón Escobar Vélez Aktiv 92 / 111 40% 1 13.08.2028 -
Agustín Martínez Cádiz Aktiv 104 / 114 40% 6 12.08.2028 -
Tomás Báez Boca Juniors Aktiv 93 / 101 40% 4 12.08.2028 -
Mason Miley Newcastle United Aktiv 103 / 111 40% 1 12.08.2028 -
Diego Vargas Universidad de Concepcion Aktiv 88 / 97 40% 1 12.08.2028 -
Seth Ridgeon Fulham Aktiv 97 / 118 40% 2 07.08.2028 -
Mauricio Ponce Quilmes Aktiv 95 / 94 40% 1 07.08.2028 -
Mateo Caballero Defensor Sporting Aktiv 106 / 107 40% 1 07.08.2028 -
Santino Aguirre Deportivo Riestra Aktiv 92 / 97 40% 1 06.08.2028 -
Maximiliano Duarte Independiente Aktiv 99 / 107 40% 1 06.08.2028 -
Seydou Fofana Pacos de Ferreira Aktiv 107 / 117 40% 4 05.08.2028 -
Francisco Arias Gimnasia y Esgrima Aktiv 83 / 92 40% 2 05.08.2028 -
Aaron Branca Artigas Aktiv 86 / 84 40% 2 04.08.2028 -
Mihail Polendakov Sheffield United Aktiv 110 / 113 40% 1 03.08.2028 -
Lamine Bèye Portimonense Aktiv 105 / 124 40% 4 02.08.2028 -
Sam Alabi Newcastle United Aktiv 119 / 123 40% 1 02.08.2028 -
Kiani Inge Groningen Aktiv 117 / 126 40% 6 01.08.2028 -
Miguel Figueiredo Benfica Aktiv 132 / 124 40% 9 27.07.2028 -
Eric Klein Real Salt Lake Aktiv 113 / 108 40% 1 26.07.2028 -
Agustín Desimone San Miguel Aktiv 90 / 93 40% 1 26.07.2028 -
Kamaldeen Atiemo Wa All Stars Aktiv 109 / 113 40% 1 25.07.2028 -
Ulises Piedrabuena Vélez Aktiv 104 / 112 40% 1 25.07.2028 -
Nazareno Roselli Defensa y Justicia Aktiv 117 / 120 40% 3 23.07.2028 -
Ignacio Ovando Rosario Central Aktiv 109 / 119 40% 1 22.07.2028 -
Gonzalo Escudero Racing Club Aktiv 105 / 114 40% 1 22.07.2028 -
Elián Báez Caracas Aktiv 93 / 89 40% 1 21.07.2028 -
Vasilije Novičić IMT Aktiv 114 / 120 40% 1 20.07.2028 -
Bruno Rizzi Instituto Aktiv 95 / 91 40% 1 18.07.2028 -
Valentin Roberge AE Kition Abgelehnt 97 / 109 65% 1 17.07.2028 Ablehnen
Galo Avendaño Aldosivi Aktiv 99 / 100 40% 3 15.07.2028 -
Maxim Radchenko Rostov Aktiv 84 / 95 40% 3 15.07.2028 -
Nejc Brekalo NK Domzale Aktiv 112 / 105 40% 1 15.07.2028 -
Martín D'Aurizio Huracán Aktiv 109 / 109 40% 2 13.07.2028 -
Adam Harrison Newcastle United Aktiv 85 / 96 40% 2 13.07.2028 -
Olivier Leroux Mouscron Aktiv 94 / 112 40% 4 12.07.2028 -
Mats Egbring Heerenveen Aktiv 115 / 116 40% 3 12.07.2028 -
Ianis Marin Pandurii Aktiv 107 / 105 40% 1 10.07.2028 -
Ho Sy Duc Pribram Aktiv 97 / 90 40% 2 08.07.2028 -
Deimer Longas Nimes Aktiv 78 / 93 40% 1 08.07.2028 -
Valentín Loza Defensa y Justicia Aktiv 103 / 113 40% 1 06.07.2028 -
Aymean El Hani Ajax Aktiv 98 / 105 40% 1 06.07.2028 -
Mouhmadou Mansour Thiam Bra Aktiv 73 / 83 40% 2 04.07.2028 -
Nicolò Moranduzzo Renate Aktiv 96 / 103 40% 10 03.07.2028 -
Makar Vysochenko Spartak Moscow Aktiv 87 / 97 40% 4 03.07.2028 -
Jack Shorrock Port Vale Aktiv 98 / 102 40% 1 03.07.2028 -
Matai Akinmboni Bournemouth Aktiv 105 / 115 40% 1 02.07.2028 -
João Capucho Benfica Aktiv 116 / 114 40% 1 29.06.2028 -
Mehdi Noorafkan Padideh Aktiv 104 / 104 40% 1 28.06.2028 -
Omar Tharwat Arab Contractors Aktiv 96 / 99 40% 1 25.06.2028 -
Owen Eames Derby County Aktiv 109 / 99 40% 1 21.06.2028 -
Alexandr Lubnin Zenit Penza Aktiv 90 / 88 40% 1 21.06.2028 -
Malachi Molina FC Dallas Aktiv 91 / 101 40% 1 20.06.2028 -
Samuel Amissah Fulham Aktiv 116 / 106 40% 1 20.06.2028 -
Noah Markmann Esbjerg Aktiv 120 / 126 40% 1 17.06.2028 -
Hunor Németh FC Copenhagen Aktiv 123 / 115 40% 1 14.06.2028 -
Jenson Jones Walsall Aktiv 92 / 113 40% 3 10.06.2028 -
Thato Sibiya Orlando Pirates Aktiv 121 / 113 40% 2 10.06.2028 -
Denys Smetana Rukh Aktiv 102 / 100 40% 3 09.06.2028 -
Isaac Monnier FC Lorient Aktiv 105 / 99 40% 1 07.06.2028 -
Ignacio Roldán Lanús Aktiv 93 / 110 40% 1 30.05.2028 -
Thiago Sabella Banfield Aktiv 107 / 112 40% 2 28.05.2028 -
Augusto Bando Ascoli Aktiv 115 / 121 40% 2 27.05.2028 -
Woody Williamson Accrington Stanley Abgelehnt 107 / 105 40% 9 26.05.2028 -
Amine Boukamir Charleroi Aktiv 105 / 105 40% 3 25.05.2028 -
Bernardo Lima Porto Aktiv 111 / 117 40% 5 24.05.2028 -
Lisandro Musso Central Córdoba SdE Aktiv 91 / 106 40% 4 22.05.2028 -
Jhusstyn Rentería Atletico Nacional Aktiv 91 / 99 40% 2 21.05.2028 -
Duran Ferree San Diego Football Club Aktiv 101 / 115 40% 1 21.05.2028 -
Musa Danjuma Umraniyespor Aktiv 88 / 110 40% 1 21.05.2028 -
Carlos Hernández Deportivo Riestra Aktiv 96 / 90 40% 1 19.05.2028 -
Bence Szakos Aris Aktiv 101 / 103 40% 2 18.05.2028 -
Nour Ashraf ENPPI Aktiv 80 / 85 40% 1 18.05.2028 -
Tobiáš Pališčák Zlin Aktiv 92 / 104 40% 1 17.05.2028 -
Agustín Nogueira Barracas Central Aktiv 105 / 109 40% 5 16.05.2028 -
Lwandiso Radebe Ajax Cape Town Aktiv 94 / 99 40% 2 16.05.2028 -
Alex Villa González Atlético Tucumán Aktiv 98 / 98 40% 1 16.05.2028 -
Milad Nekounam Gostaresh Foulad Aktiv 76 / 95 40% 1 15.05.2028 -
Daniel Fois Südtirol Aktiv 83 / 88 40% 1 14.05.2028 -
Diego Bolaños Veracruz Aktiv 84 / 97 40% 1 12.05.2028 -
Facundo Binzugna Boca Juniors Aktiv 93 / 100 40% 1 12.05.2028 -
Máximo Núñez Los Andes Aktiv 102 / 107 40% 4 10.05.2028 -
Nicolás Ruiz Tigres Aktiv 92 / 93 40% 1 10.05.2028 -
Thiago Perruisset Boca Juniors Aktiv 90 / 102 40% 7 08.05.2028 -
George Hardy Charlton Athletic Aktiv 73 / 90 40% 1 08.05.2028 -
Fernando Bravo Almería Aktiv 113 / 110 40% 2 07.05.2028 -
Randall Castillo Universidad de Chile Aktiv 90 / 93 40% 1 07.05.2028 -
Irwin Zamudio Tijuana Aktiv 77 / 96 40% 1 05.05.2028 -
Kelian Le Pironnec Mirandés Aktiv 103 / 99 40% 2 03.05.2028 -
Fabián Correa Barranquilla Aktiv 92 / 94 40% 1 03.05.2028 -
Duván Córdoba Jaguares Aktiv 95 / 104 40% 2 01.05.2028 -
Ángel Aguayo Sol de America Aktiv 95 / 104 40% 1 01.05.2028 -
Juan David Lázaro Patriotas Aktiv 90 / 103 40% 3 28.04.2028 -
Finley Taylor Blackburn Rovers Aktiv 69 / 90 40% 1 28.04.2028 -
Isa Aji US Bougouni Aktiv 84 / 90 40% 2 27.04.2028 -
Ramiro Pueblas Argentinos Juniors Aktiv 81 / 91 40% 4 26.04.2028 -
Oscar Varney Coventry City Aktiv 93 / 84 40% 1 26.04.2028 -
Sam Jones Cardiff City Aktiv 79 / 92 40% 1 26.04.2028 -
Martim Cunha Porto Aktiv 101 / 112 40% 5 23.04.2028 -
Ayoub Akabou Ceuta Aktiv 101 / 111 40% 2 23.04.2028 -
Jayden Ngwashi Manchester United Aktiv 115 / 125 40% 1 23.04.2028 -
Yeifer Herrera Leones Aktiv 94 / 94 40% 1 23.04.2028 -
Bark Abdramane AS PSI Aktiv 78 / 80 40% 5 22.04.2028 -
Gino Rizzo Rosario Central Aktiv 83 / 83 40% 1 19.04.2028 -
Julián Alcar Banfield Aktiv 93 / 95 40% 5 15.04.2028 -
Toby Bell Chelsea Aktiv 90 / 95 40% 1 15.04.2028 -
Gianluca Valdiviezo Colón Aktiv 103 / 107 40% 1 13.04.2028 -
Santiago Suárez Queretaro Aktiv 68 / 81 40% 1 13.04.2028 -
Nicolás Casa Barranquilla Aktiv 89 / 90 40% 2 12.04.2028 -
Leon Klanac Bayern Munich Aktiv 97 / 111 40% 1 09.04.2028 -
Law McCabe Middlesbrough Aktiv 124 / 126 40% 1 09.04.2028 -
Jakub Adkonis Korona Aktiv 89 / 109 40% 1 09.04.2028 -
Eze Matthew Enyimba Aktiv 89 / 84 40% 1 04.04.2028 -
Samuel Galindo Deportes Tolima Aktiv 79 / 98 40% 1 03.04.2028 -
Yegor Koshkin Pobeda Aktiv 95 / 90 40% 7 01.04.2028 -
Jorman Mendoza Envigado Aktiv 81 / 92 40% 2 31.03.2028 -
Jan Bürger Northampton Town Aktiv 129 / 119 40% 3 29.03.2028 -
Jon Esenga IF Elfsborg Aktiv 84 / 105 40% 4 29.03.2028 -
Juan Kuverling Unión de Santa Fe Aktiv 88 / 90 40% 1 28.03.2028 -
Othniël Raterink Cagliari Aktiv 110 / 117 40% 1 27.03.2028 -
Manuel Pereyra Tigre Aktiv 98 / 94 40% 1 24.03.2028 -
Patricio Schroeder Gimnasia La Plata Aktiv 89 / 91 40% 1 22.03.2028 -
Nicolas Sport Recife Aktiv 102 / 115 40% 4 21.03.2028 -
Denis Grigorjev Arsenal Tula Aktiv 75 / 93 40% 2 21.03.2028 -
Maximiliano Campos Zamora Aktiv 101 / 102 40% 1 19.03.2028 -
Alejandro Gutiérrez Mineros de Guayana Aktiv 86 / 95 40% 1 17.03.2028 -
Gerardo Díaz San Martín SJ Aktiv 102 / 100 40% 4 15.03.2028 -
Jeremías Robledo Acosta Newell's Old Boys Aktiv 89 / 94 40% 2 15.03.2028 -
Giannis Christodoulopoulos Olympiacos Aktiv 92 / 79 40% 2 12.03.2028 -
Thiago Silvero Vélez Aktiv 132 / 131 40% 1 12.03.2028 -
Ignacio Coscio Huracán Aktiv 101 / 99 40% 1 10.03.2028 -
Cristian Derbyshire Binga Aktiv 75 / 74 40% 1 08.03.2028 -
Jorge Sánchez Carabobo Aktiv 102 / 101 40% 3 04.03.2028 -
Íker Blanco Deportivo Cali Aktiv 96 / 100 40% 2 29.02.2028 -
Carlos Nemocón Santa Fe Aktiv 90 / 99 40% 7 26.02.2028 -
Samuel Atehortúa Deportivo Pereira Aktiv 80 / 93 40% 1 22.02.2028 -
David Fernández Unión de Santa Fe Aktiv 83 / 96 40% 1 22.02.2028 -
Lorenz Ferdinand Tondela Aktiv 86 / 98 40% 2 19.02.2028 -
Marcos Suárez Sevilla Aktiv 82 / 88 40% 1 17.02.2028 -
Danilo Monza Sarmiento Aktiv 103 / 109 40% 1 13.02.2028 -
Matvey Bardachev Zenit Aktiv 111 / 104 40% 1 13.02.2028 -
Abubakar Adams Aduana Stars Aktiv 95 / 98 40% 1 13.02.2028 -
Sabino González Sarmiento Aktiv 99 / 96 40% 2 08.02.2028 -
Tyler Fletcher Rotherham United Aktiv 121 / 115 40% 3 08.02.2028 -
Mark Pereverzev Orenburg Aktiv 68 / 79 40% 1 04.02.2028 -
Ignacio Cardozo Vélez Aktiv 91 / 98 40% 3 02.02.2028 -
Zane Albarus Shrewsbury Town Aktiv 106 / 104 40% 3 31.01.2028 -
Tobias Moi Lillestrom Aktiv 94 / 109 40% 2 31.01.2028 -
Joaquín Giudice Platense Aktiv 100 / 108 40% 6 28.01.2028 -
Joaquín Mancuso Vélez Aktiv 93 / 100 40% 1 27.01.2028 -
Charlie Gray Fleetwood Town Aktiv 110 / 95 40% 3 25.01.2028 -
Juan Manuel Centurión Independiente Aktiv 99 / 102 40% 3 25.01.2028 -
Henry Lawal Remo Stars Aktiv 88 / 97 40% 1 24.01.2028 -
Seb Stacey Crawley Town Aktiv 94 / 90 40% 2 22.01.2028 -
Enzo Gramajo Vélez Aktiv 91 / 91 40% 1 18.01.2028 -
Tiziano Delias Sarmiento Aktiv 83 / 91 40% 13 13.01.2028 -
Roberto Moreno Cruz Azul Aktiv 79 / 89 40% 1 13.01.2028 -
Josh Nichols Oldham Athletic Aktiv 115 / 123 40% 2 12.01.2028 -
Sebastian Jensen Brighton Aktiv 88 / 105 40% 1 05.01.2028 -
Lisandro Tejada San Martín SJ Aktiv 96 / 97 40% 1 05.01.2028 -
Tobías Pantoja Central Norte Aktiv 97 / 107 40% 2 04.01.2028 -
Matías Molina Independiente Aktiv 108 / 112 40% 1 04.01.2028 -
Ulíses López Barracas Central Aktiv 93 / 97 40% 1 04.01.2028 -
Hosea Michael Remo Stars Aktiv 100 / 102 40% 3 31.12.2027 -
Hugo Rojas Instituto Aktiv 98 / 107 40% 1 10.12.2027 -
Theofilos Kakadiaris Asteras Aktiv 70 / 77 40% 2 05.12.2027 -
Felipe Igón Racing Club Aktiv 102 / 104 40% 2 02.12.2027 -
Matias Siltanen Malmo FF Aktiv 131 / 122 40% 3 26.11.2027 -
Mohamed Moussa Koïta Mathare United Aktiv 87 / 93 40% 1 26.11.2027 -
Gideon Manaseh Ikorodu City Aktiv 95 / 91 40% 1 22.11.2027 -
Juan Camilo Córdoba Deportivo Pereira Aktiv 91 / 95 40% 1 22.11.2027 -
Siyabonga Hlatshwayo Bloemfontein Celtic Aktiv 91 / 89 40% 1 10.11.2027 -
Nikita Dovnar Niva Aktiv 66 / 76 40% 1 07.11.2027 -
Adrian Skogmar Malmo FF Aktiv 115 / 120 40% 1 03.11.2027 -
Olivier Mambwa Young Boys Aktiv 102 / 112 40% 1 03.11.2027 -
Celías Ingenthron Platense Aktiv 120 / 126 40% 1 01.11.2027 -
True Grant Oldham Athletic Aktiv 109 / 108 40% 2 19.10.2027 -
Christian Bravo Huachipato Aktiv 78 / 98 40% 1 18.10.2027 -
Valentín Catalán Argentinos Juniors Aktiv 87 / 95 40% 1 18.10.2027 -
Matías Zorzoli Newell's Old Boys Aktiv 87 / 105 40% 1 14.10.2027 -
Damián Constanzo River Plate Aktiv 90 / 92 40% 1 13.10.2027 -
Matthew Litherland Harrogate Town Aktiv 117 / 114 40% 1 04.10.2027 -
Ikenna Nkwazema FC Diarra Aktiv 71 / 78 40% 2 26.09.2027 -
Lucas Wolfert Racing Club Aktiv 98 / 103 40% 1 23.09.2027 -
Alexei Rojas Fedorushchenko Barrow AFC Aktiv 112 / 125 40% 2 19.09.2027 -
Kayne Rizvanovich Minnesota United FC Aktiv 91 / 97 40% 1 14.09.2027 -
Anthony Cletus Bendel Insurance Aktiv 86 / 88 40% 1 12.09.2027 -
Ethan Gold Crewe Alexandra Aktiv 94 / 109 40% 2 09.09.2027 -
Jesús Mejía Real Santander Aktiv 79 / 88 40% 1 07.09.2027 -
Joel Ezra Enyimba Aktiv 106 / 102 40% 1 30.08.2027 -
Björn Hedlöf Helsingborg Aktiv 98 / 104 40% 1 25.08.2027 -
José Cavadia Aguilas Doradas Aktiv 116 / 115 40% 1 25.08.2027 -
Isaías Silva Miramar Misiones Aktiv 88 / 93 40% 1 21.08.2027 -
Óscar Hinojosa Metropolitanos Aktiv 72 / 80 40% 1 21.08.2027 -
Matías Canedo Rampla Juniors Aktiv 82 / 94 40% 1 20.08.2027 -
Vittorio Magni Cesena Aktiv 105 / 108 40% 2 18.08.2027 -
Chibueze Oputa Rangers International Aktiv 82 / 88 40% 2 14.08.2027 -
Tommaso Cecotti Carpi Aktiv 107 / 94 40% 1 14.08.2027 -
Panagiotis Markou Doxa Aktiv 91 / 109 40% 1 13.08.2027 -
Mpho Khethang FC Diarra Aktiv 90 / 81 40% 1 12.08.2027 -
Pedro Vian Seewald Dolomiti Bellunesi Aktiv 83 / 106 40% 1 03.08.2027 -
Andrea Bertoncini Triestina Aktiv 98 / 100 40% 3 27.07.2027 -
George Hoddle Cambridge United Aktiv 86 / 84 40% 2 26.07.2027 -
Leandro Martins Benfica Aktiv 98 / 109 40% 2 20.07.2027 -
Riley Owen Stevenage Aktiv 107 / 109 40% 2 20.07.2027 -
Wessel Kuhn PSV Aktiv 115 / 112 40% 1 18.07.2027 -
Rhys Walters Port Vale Aktiv 106 / 112 40% 3 17.07.2027 -
Konta Ismaily Aktiv 95 / 94 40% 2 15.07.2027 -
Ahmed Zaki Masr El Makasa Aktiv 89 / 93 40% 1 13.07.2027 -
Elijah Adebayo Luton Town Aktiv 135 / 120 40% 1 12.07.2027 -
Carlton Morris Derby County Aktiv 130 / 131 40% 1 12.07.2027 -
Camillo Tavernelli Arezzo Aktiv 126 / 118 40% 1 21.06.2027 -
Gonçalo Oliveira Benfica Aktiv 111 / 125 40% 1 01.06.2027 -
Sascha Britschgi AC Milan Aktiv 113 / 132 40% 6 27.05.2027 -
Daniel Padilla Zamora Aktiv 91 / 98 40% 1 24.05.2027 -
Ezra Mayers West Ham United Aktiv 105 / 121 40% 2 20.05.2027 -
Tiago Freitas Benfica Aktiv 120 / 118 40% 3 18.05.2027 -
Joseph Namatane FC Metz Aktiv 83 / 103 40% 2 30.04.2027 -
Halam Loboa Sevilla Aktiv 127 / 136 40% 1 29.04.2027 -
David Ozoh Derby County Aktiv 119 / 136 40% 2 21.04.2027 -
Lucas Mbamba Westerlo Aktiv 99 / 86 40% 1 19.04.2027 -
Bence Dárdai VfL Wolfsburg Aktiv 128 / 126 40% 1 07.04.2027 -
Kirill Glazunov Zenit Aktiv 79 / 82 40% 1 27.03.2027 -
Jaygo van Ommeren Utrecht Aktiv 111 / 116 40% 1 21.03.2027 -
Lucas Agazzi Villarreal Aktiv 128 / 132 40% 1 18.03.2027 -
Darío Poveda Nea Salamis Aktiv 110 / 107 40% 2 30.12.2026 -
Nikos Karelis Aktiv 97 / 105 40% 1 28.12.2026 -
Juan Cejas Ethnikos Achnas Aktiv 104 / 109 40% 2 27.12.2026 -
Brayan Gil Baltika Aktiv 115 / 112 40% 2 27.12.2026 -
Mohamed Konaté Akhmat Grozny Aktiv 114 / 111 40% 2 17.12.2026 -
Prince Ibara Al-Njoom Aktiv 99 / 104 40% 1 14.12.2026 -
Yeangel Montero Naxxar Lions Aktiv 91 / 112 40% 1 12.12.2026 -
Ivan Sergeev Dinamo Moscow Aktiv 117 / 129 40% 1 06.12.2026 -
Sam Nombe Milton Keynes Dons Aktiv 109 / 119 40% 1 01.12.2026 -
Alexandr Kokorin Aktiv 125 / 114 40% 1 01.12.2026 -
Jamie Reid Stevenage Aktiv 114 / 96 40% 1 30.11.2026 -
Arthur Gomes Dinamo Moscow Aktiv 124 / 124 40% 1 28.11.2026 -
Mamadou Sylla Al-Riyadh Aktiv 141 / 114 40% 2 25.11.2026 -
Ruslan Apekov Torpedo Moscow Aktiv 95 / 101 40% 1 24.11.2026 -
Nicolae Milinceanu Doxa Aktiv 104 / 107 40% 1 22.11.2026 -
Marcelo Torres Gimnasia La Plata Aktiv 118 / 112 40% 2 19.11.2026 -
Wilfried Kanga Al-Fateh Aktiv 130 / 110 40% 1 15.11.2026 -
Leandro Antunes Al-Riyadh Aktiv 115 / 115 40% 1 14.11.2026 -
Luis Solignac Al-Ittihad Aktiv 95 / 110 40% 1 11.11.2026 -
Amur Kalmykov Spartak Kostroma Aktiv 122 / 108 40% 1 06.11.2026 -
Simy Al-Orobah Aktiv 139 / 109 40% 1 06.11.2026 -
Peter Olayinka Al-Wehda Aktiv 133 / 129 40% 1 05.11.2026 -
Dimitris Diamantakos APOEL Aktiv 119 / 101 40% 1 03.11.2026 -
Manprit Sarkaria Austria Wien Aktiv 123 / 104 40% 1 02.11.2026 -
Charalabos Georgiadis Panserraikos Aktiv 75 / 88 40% 1 17.08.2026 -
Thiago Martínez Defensa y Justicia Aktiv 83 / 103 40% 1 02.08.2026 -